sensor_id;sensor_type;location;lat;lon;timestamp;pressure;altitude;pressure_sealevel;temperature;humidity
52591;BME280;38483;42.620;25.394;2023-12-14T00:02:02;96227.97;;;5.07;88.27
52591;BME280;38483;42.620;25.394;2023-12-14T00:04:29;96229.84;;;5.25;87.11
52591;BME280;38483;42.620;25.394;2023-12-14T00:06:56;96229.22;;;5.18;87.39
52591;BME280;38483;42.620;25.394;2023-12-14T00:09:23;96226.13;;;5.10;86.83
52591;BME280;38483;42.620;25.394;2023-12-14T00:11:51;96207.44;;;5.07;87.54
52591;BME280;38483;42.620;25.394;2023-12-14T00:14:18;96227.66;;;5.14;87.12
52591;BME280;38483;42.620;25.394;2023-12-14T00:16:45;96209.63;;;4.94;86.10
52591;BME280;38483;42.620;25.394;2023-12-14T00:19:12;96224.94;;;4.95;86.35
52591;BME280;38483;42.620;25.394;2023-12-14T00:21:39;96224.84;;;4.75;87.11
52591;BME280;38483;42.620;25.394;2023-12-14T00:24:06;96222.50;;;4.69;88.05
52591;BME280;38483;42.620;25.394;2023-12-14T00:26:33;96233.53;;;4.71;88.60
52591;BME280;38483;42.620;25.394;2023-12-14T00:29:00;96244.53;;;4.75;89.02
52591;BME280;38483;42.620;25.394;2023-12-14T00:31:28;96244.19;;;4.84;88.05
52591;BME280;38483;42.620;25.394;2023-12-14T00:33:55;96228.63;;;4.88;87.71
52591;BME280;38483;42.620;25.394;2023-12-14T00:36:22;96230.25;;;4.91;86.56
52591;BME280;38483;42.620;25.394;2023-12-14T00:38:49;96245.56;;;4.92;86.33
52591;BME280;38483;42.620;25.394;2023-12-14T00:41:16;96232.88;;;4.89;87.26
52591;BME280;38483;42.620;25.394;2023-12-14T00:43:43;96240.25;;;4.75;86.80
52591;BME280;38483;42.620;25.394;2023-12-14T00:46:11;96226.22;;;4.61;86.31
52591;BME280;38483;42.620;25.394;2023-12-14T00:48:38;96218.13;;;4.48;87.05
52591;BME280;38483;42.620;25.394;2023-12-14T00:51:05;96241.00;;;4.54;87.18
52591;BME280;38483;42.620;25.394;2023-12-14T00:53:32;96232.91;;;4.65;86.53
52591;BME280;38483;42.620;25.394;2023-12-14T00:55:59;96250.59;;;4.72;85.14
52591;BME280;38483;42.620;25.394;2023-12-14T00:58:26;96249.25;;;4.62;85.85
52591;BME280;38483;42.620;25.394;2023-12-14T01:00:54;96242.41;;;4.63;85.84
52591;BME280;38483;42.620;25.394;2023-12-14T01:03:22;96249.38;;;4.59;86.32
52591;BME280;38483;42.620;25.394;2023-12-14T01:05:49;96251.16;;;4.57;85.92
52591;BME280;38483;42.620;25.394;2023-12-14T01:08:16;96229.38;;;4.44;86.38
52591;BME280;38483;42.620;25.394;2023-12-14T01:10:43;96253.38;;;4.42;86.20
52591;BME280;38483;42.620;25.394;2023-12-14T01:13:10;96241.22;;;4.24;87.21
52591;BME280;38483;42.620;25.394;2023-12-14T01:15:38;96237.13;;;4.18;86.94
52591;BME280;38483;42.620;25.394;2023-12-14T01:18:05;96246.94;;;4.05;88.57
52591;BME280;38483;42.620;25.394;2023-12-14T01:20:32;96237.28;;;4.13;88.27
52591;BME280;38483;42.620;25.394;2023-12-14T01:22:59;96229.47;;;4.17;88.49
52591;BME280;38483;42.620;25.394;2023-12-14T01:25:26;96226.75;;;3.96;89.75
52591;BME280;38483;42.620;25.394;2023-12-14T01:27:54;96242.25;;;3.92;90.40
52591;BME280;38483;42.620;25.394;2023-12-14T01:30:21;96235.13;;;4.01;90.52
52591;BME280;38483;42.620;25.394;2023-12-14T01:32:48;96225.19;;;3.92;91.14
52591;BME280;38483;42.620;25.394;2023-12-14T01:35:15;96222.56;;;4.20;91.66
52591;BME280;38483;42.620;25.394;2023-12-14T01:37:42;96230.59;;;4.09;92.18
52591;BME280;38483;42.620;25.394;2023-12-14T01:40:09;96218.44;;;4.14;92.58
52591;BME280;38483;42.620;25.394;2023-12-14T01:42:37;96218.00;;;4.28;91.86
52591;BME280;38483;42.620;25.394;2023-12-14T01:45:05;96209.38;;;4.31;92.40
52591;BME280;38483;42.620;25.394;2023-12-14T01:47:32;96207.41;;;4.37;91.63
52591;BME280;38483;42.620;25.394;2023-12-14T01:49:59;96208.09;;;4.42;91.87
52591;BME280;38483;42.620;25.394;2023-12-14T01:52:27;96215.00;;;4.40;91.12
52591;BME280;38483;42.620;25.394;2023-12-14T01:54:54;96201.84;;;4.49;90.95
52591;BME280;38483;42.620;25.394;2023-12-14T01:57:22;96195.06;;;4.48;90.32
52591;BME280;38483;42.620;25.394;2023-12-14T01:59:49;96202.88;;;4.68;90.32
52591;BME280;38483;42.620;25.394;2023-12-14T02:02:16;96198.97;;;4.81;88.70
52591;BME280;38483;42.620;25.394;2023-12-14T02:04:43;96197.81;;;4.90;88.42
52591;BME280;38483;42.620;25.394;2023-12-14T02:07:10;96194.56;;;4.85;88.03
52591;BME280;38483;42.620;25.394;2023-12-14T02:09:37;96198.03;;;4.84;87.88
52591;BME280;38483;42.620;25.394;2023-12-14T02:12:05;96190.59;;;4.76;88.06
52591;BME280;38483;42.620;25.394;2023-12-14T02:14:33;96199.44;;;4.69;88.33
52591;BME280;38483;42.620;25.394;2023-12-14T02:17:00;96189.41;;;4.63;88.49
52591;BME280;38483;42.620;25.394;2023-12-14T02:19:27;96197.88;;;4.65;87.96
52591;BME280;38483;42.620;25.394;2023-12-14T02:21:54;96191.50;;;4.52;88.59
52591;BME280;38483;42.620;25.394;2023-12-14T02:24:22;96187.69;;;4.39;88.83
52591;BME280;38483;42.620;25.394;2023-12-14T02:26:49;96171.72;;;4.33;88.68
52591;BME280;38483;42.620;25.394;2023-12-14T02:29:30;96188.66;;;4.60;88.55
52591;BME280;38483;42.620;25.394;2023-12-14T02:31:57;96180.22;;;4.33;88.83
52591;BME280;38483;42.620;25.394;2023-12-14T02:34:24;96193.00;;;4.10;89.45
52591;BME280;38483;42.620;25.394;2023-12-14T02:36:52;96187.69;;;4.16;89.25
52591;BME280;38483;42.620;25.394;2023-12-14T02:39:19;96182.56;;;4.16;89.59
52591;BME280;38483;42.620;25.394;2023-12-14T02:41:46;96175.31;;;4.27;89.95
52591;BME280;38483;42.620;25.394;2023-12-14T02:44:13;96171.25;;;4.22;89.72
52591;BME280;38483;42.620;25.394;2023-12-14T02:46:41;96131.56;;;3.84;89.73
52591;BME280;38483;42.620;25.394;2023-12-14T02:49:08;96187.34;;;4.25;90.04
52591;BME280;38483;42.620;25.394;2023-12-14T02:51:35;96161.41;;;4.34;89.62
52591;BME280;38483;42.620;25.394;2023-12-14T02:54:02;96188.59;;;4.38;89.28
52591;BME280;38483;42.620;25.394;2023-12-14T02:56:29;96191.91;;;4.17;89.90
52591;BME280;38483;42.620;25.394;2023-12-14T02:58:56;96177.16;;;3.99;91.08
52591;BME280;38483;42.620;25.394;2023-12-14T03:01:23;96191.22;;;4.12;91.26
52591;BME280;38483;42.620;25.394;2023-12-14T03:03:50;96195.44;;;4.13;91.50
52591;BME280;38483;42.620;25.394;2023-12-14T03:06:18;96185.84;;;3.95;92.16
52591;BME280;38483;42.620;25.394;2023-12-14T03:08:45;96183.22;;;3.96;92.91
52591;BME280;38483;42.620;25.394;2023-12-14T03:11:21;96148.88;;;3.77;93.24
52591;BME280;38483;42.620;25.394;2023-12-14T03:13:49;96193.09;;;4.07;92.69
52591;BME280;38483;42.620;25.394;2023-12-14T03:16:17;96151.59;;;3.97;93.46
52591;BME280;38483;42.620;25.394;2023-12-14T03:18:44;96191.38;;;4.32;92.86
52591;BME280;38483;42.620;25.394;2023-12-14T03:21:11;96173.97;;;4.17;92.93
52591;BME280;38483;42.620;25.394;2023-12-14T03:23:38;96188.91;;;4.29;93.26
52591;BME280;38483;42.620;25.394;2023-12-14T03:26:05;96189.31;;;4.42;93.71
52591;BME280;38483;42.620;25.394;2023-12-14T03:28:32;96192.56;;;4.47;94.40
52591;BME280;38483;42.620;25.394;2023-12-14T03:31:00;96185.03;;;4.65;94.44
52591;BME280;38483;42.620;25.394;2023-12-14T03:33:27;96200.06;;;4.76;93.50
52591;BME280;38483;42.620;25.394;2023-12-14T03:35:54;96200.31;;;4.91;93.29
52591;BME280;38483;42.620;25.394;2023-12-14T03:38:22;96192.50;;;4.94;92.17
52591;BME280;38483;42.620;25.394;2023-12-14T03:40:49;96175.38;;;4.95;92.36
52591;BME280;38483;42.620;25.394;2023-12-14T03:43:16;96176.22;;;4.95;92.55
52591;BME280;38483;42.620;25.394;2023-12-14T03:45:43;96189.25;;;5.13;91.74
52591;BME280;38483;42.620;25.394;2023-12-14T03:48:10;96187.47;;;5.15;91.40
52591;BME280;38483;42.620;25.394;2023-12-14T03:50:38;96181.31;;;5.19;91.64
52591;BME280;38483;42.620;25.394;2023-12-14T03:53:05;96194.84;;;5.22;91.11
52591;BME280;38483;42.620;25.394;2023-12-14T03:55:33;96192.22;;;5.24;90.96
52591;BME280;38483;42.620;25.394;2023-12-14T03:58:00;96195.00;;;5.19;90.14
52591;BME280;38483;42.620;25.394;2023-12-14T04:00:27;96191.50;;;5.20;91.25
52591;BME280;38483;42.620;25.394;2023-12-14T04:02:54;96190.88;;;5.15;90.23
52591;BME280;38483;42.620;25.394;2023-12-14T04:05:22;96189.84;;;5.19;90.06
52591;BME280;38483;42.620;25.394;2023-12-14T04:07:49;96193.00;;;5.26;90.40
52591;BME280;38483;42.620;25.394;2023-12-14T04:10:16;96188.72;;;5.26;89.65
52591;BME280;38483;42.620;25.394;2023-12-14T04:12:44;96138.81;;;4.90;89.84
52591;BME280;38483;42.620;25.394;2023-12-14T04:15:11;96176.34;;;5.14;89.02
52591;BME280;38483;42.620;25.394;2023-12-14T04:17:38;96192.16;;;5.04;88.04
52591;BME280;38483;42.620;25.394;2023-12-14T04:20:06;96194.16;;;4.95;88.99
52591;BME280;38483;42.620;25.394;2023-12-14T04:22:33;96173.25;;;4.83;88.25
52591;BME280;38483;42.620;25.394;2023-12-14T04:25:01;96111.56;;;4.41;88.42
52591;BME280;38483;42.620;25.394;2023-12-14T04:27:30;96179.41;;;4.79;88.96
52591;BME280;38483;42.620;25.394;2023-12-14T04:29:57;96189.56;;;4.82;88.97
52591;BME280;38483;42.620;25.394;2023-12-14T04:32:25;96208.09;;;4.88;89.50
52591;BME280;38483;42.620;25.394;2023-12-14T04:35:27;96191.56;;;4.74;88.19
52591;BME280;38483;42.620;25.394;2023-12-14T04:37:54;96193.19;;;4.53;88.89
52591;BME280;38483;42.620;25.394;2023-12-14T04:40:21;96179.06;;;4.42;89.74
52591;BME280;38483;42.620;25.394;2023-12-14T04:42:48;96172.53;;;4.33;90.93
52591;BME280;38483;42.620;25.394;2023-12-14T04:45:15;96189.66;;;4.33;90.92
52591;BME280;38483;42.620;25.394;2023-12-14T04:47:43;96185.50;;;4.29;91.65
52591;BME280;38483;42.620;25.394;2023-12-14T04:50:11;96201.97;;;4.46;90.92
52591;BME280;38483;42.620;25.394;2023-12-14T04:52:41;96203.06;;;4.39;90.99
52591;BME280;38483;42.620;25.394;2023-12-14T04:55:08;96188.66;;;4.60;89.55
52591;BME280;38483;42.620;25.394;2023-12-14T04:57:36;96187.59;;;4.42;89.55
52591;BME280;38483;42.620;25.394;2023-12-14T05:00:09;96192.56;;;4.47;90.04
52591;BME280;38483;42.620;25.394;2023-12-14T05:02:40;96207.06;;;4.71;90.17
52591;BME280;38483;42.620;25.394;2023-12-14T05:05:07;96199.91;;;4.79;89.49
52591;BME280;38483;42.620;25.394;2023-12-14T05:07:39;96180.81;;;4.64;88.93
52591;BME280;38483;42.620;25.394;2023-12-14T05:10:07;96193.84;;;4.58;89.28
52591;BME280;38483;42.620;25.394;2023-12-14T05:12:38;96198.81;;;4.63;90.06
52591;BME280;38483;42.620;25.394;2023-12-14T05:15:06;96180.50;;;4.72;89.58
52591;BME280;38483;42.620;25.394;2023-12-14T05:17:33;96179.34;;;4.80;89.41
52591;BME280;38483;42.620;25.394;2023-12-14T05:20:07;96168.31;;;4.78;88.90
52591;BME280;38483;42.620;25.394;2023-12-14T05:22:35;96174.72;;;4.90;89.21
52591;BME280;38483;42.620;25.394;2023-12-14T05:25:03;96176.09;;;4.99;89.18
52591;BME280;38483;42.620;25.394;2023-12-14T05:27:31;96169.84;;;4.82;88.13
52591;BME280;38483;42.620;25.394;2023-12-14T05:30:01;96169.75;;;4.85;88.13
52591;BME280;38483;42.620;25.394;2023-12-14T05:32:31;96175.44;;;4.70;89.37
52591;BME280;38483;42.620;25.394;2023-12-14T05:34:59;96177.00;;;4.74;89.08
52591;BME280;38483;42.620;25.394;2023-12-14T05:37:29;96169.03;;;4.82;89.36
52591;BME280;38483;42.620;25.394;2023-12-14T05:39:57;96167.13;;;4.64;89.42
52591;BME280;38483;42.620;25.394;2023-12-14T05:42:24;96171.22;;;4.69;90.25
52591;BME280;38483;42.620;25.394;2023-12-14T05:44:51;96177.94;;;4.72;89.42
52591;BME280;38483;42.620;25.394;2023-12-14T05:47:18;96192.34;;;4.76;89.94
52591;BME280;38483;42.620;25.394;2023-12-14T05:49:45;96167.56;;;4.53;90.09
52591;BME280;38483;42.620;25.394;2023-12-14T05:52:13;96177.59;;;4.59;89.01
52591;BME280;38483;42.620;25.394;2023-12-14T05:54:40;96173.78;;;4.46;90.69
52591;BME280;38483;42.620;25.394;2023-12-14T05:57:08;96192.13;;;4.82;90.08
52591;BME280;38483;42.620;25.394;2023-12-14T05:59:35;96188.03;;;4.76;89.09
52591;BME280;38483;42.620;25.394;2023-12-14T06:02:02;96188.94;;;4.75;88.51
52591;BME280;38483;42.620;25.394;2023-12-14T06:04:29;96188.41;;;4.67;89.46
52591;BME280;38483;42.620;25.394;2023-12-14T06:06:56;96185.69;;;4.70;88.95
52591;BME280;38483;42.620;25.394;2023-12-14T06:09:24;96196.97;;;4.66;89.06
52591;BME280;38483;42.620;25.394;2023-12-14T06:12:01;96171.22;;;4.69;89.24
52591;BME280;38483;42.620;25.394;2023-12-14T06:14:29;96195.13;;;4.70;89.85
52591;BME280;38483;42.620;25.394;2023-12-14T06:16:57;96198.81;;;4.63;89.27
52591;BME280;38483;42.620;25.394;2023-12-14T06:19:25;96190.28;;;4.62;90.81
52591;BME280;38483;42.620;25.394;2023-12-14T06:21:52;96190.22;;;4.64;91.48
52591;BME280;38483;42.620;25.394;2023-12-14T06:24:19;96193.94;;;4.78;90.61
52591;BME280;38483;42.620;25.394;2023-12-14T06:26:48;96208.00;;;4.91;89.69
52591;BME280;38483;42.620;25.394;2023-12-14T06:29:15;96197.06;;;4.86;91.04
52591;BME280;38483;42.620;25.394;2023-12-14T06:31:45;96177.94;;;4.95;90.59
52591;BME280;38483;42.620;25.394;2023-12-14T06:34:12;96209.09;;;5.08;90.36
52591;BME280;38483;42.620;25.394;2023-12-14T06:36:43;96214.41;;;5.03;89.62
52591;BME280;38483;42.620;25.394;2023-12-14T06:39:11;96220.84;;;5.13;90.19
52591;BME280;38483;42.620;25.394;2023-12-14T06:41:39;96216.53;;;5.37;88.91
52591;BME280;38483;42.620;25.394;2023-12-14T06:44:06;96206.06;;;5.20;88.95
52591;BME280;38483;42.620;25.394;2023-12-14T06:46:36;96201.84;;;5.19;89.13
52591;BME280;38483;42.620;25.394;2023-12-14T06:49:03;96212.34;;;5.34;88.42
52591;BME280;38483;42.620;25.394;2023-12-14T06:51:30;96193.78;;;5.28;88.51
52591;BME280;38483;42.620;25.394;2023-12-14T06:53:58;96226.25;;;5.29;88.59
52591;BME280;38483;42.620;25.394;2023-12-14T06:56:25;96229.94;;;5.22;88.95
52591;BME280;38483;42.620;25.394;2023-12-14T06:58:52;96248.69;;;5.24;89.66
52591;BME280;38483;42.620;25.394;2023-12-14T07:01:19;96236.94;;;5.18;88.82
52591;BME280;38483;42.620;25.394;2023-12-14T07:03:46;96220.06;;;5.11;89.98
52591;BME280;38483;42.620;25.394;2023-12-14T07:06:16;96227.91;;;5.30;89.74
52591;BME280;38483;42.620;25.394;2023-12-14T07:08:44;96169.63;;;4.88;88.54
52591;BME280;38483;42.620;25.394;2023-12-14T07:11:11;96222.78;;;5.30;88.69
52591;BME280;38483;42.620;25.394;2023-12-14T07:13:39;96233.78;;;5.55;88.67
52591;BME280;38483;42.620;25.394;2023-12-14T07:16:08;96226.00;;;5.56;87.12
52591;BME280;38483;42.620;25.394;2023-12-14T07:18:37;96206.56;;;5.29;88.08
52591;BME280;38483;42.620;25.394;2023-12-14T07:21:05;96243.69;;;5.42;87.61
52591;BME280;38483;42.620;25.394;2023-12-14T07:23:33;96252.44;;;5.15;88.31
52591;BME280;38483;42.620;25.394;2023-12-14T07:26:00;96229.97;;;4.99;89.15
52591;BME280;38483;42.620;25.394;2023-12-14T07:28:31;96253.66;;;5.05;89.58
52591;BME280;38483;42.620;25.394;2023-12-14T07:30:58;96236.91;;;4.97;88.76
52591;BME280;38483;42.620;25.394;2023-12-14T07:33:25;96253.66;;;5.05;88.79
52591;BME280;38483;42.620;25.394;2023-12-14T07:35:53;96263.19;;;5.25;89.51
52591;BME280;38483;42.620;25.394;2023-12-14T07:38:20;96254.50;;;5.29;89.80
52591;BME280;38483;42.620;25.394;2023-12-14T07:40:47;96223.34;;;5.38;88.68
52591;BME280;38483;42.620;25.394;2023-12-14T07:43:14;96247.28;;;5.60;88.33
52591;BME280;38483;42.620;25.394;2023-12-14T07:45:41;96244.56;;;5.64;88.71
52591;BME280;38483;42.620;25.394;2023-12-14T07:48:08;96251.28;;;5.67;88.32
52591;BME280;38483;42.620;25.394;2023-12-14T07:50:36;96258.38;;;5.82;87.26
52591;BME280;38483;42.620;25.394;2023-12-14T07:53:03;96229.34;;;5.80;87.65
52591;BME280;38483;42.620;25.394;2023-12-14T07:55:31;96252.28;;;6.06;88.00
52591;BME280;38483;42.620;25.394;2023-12-14T07:57:58;96225.53;;;6.12;86.76
52591;BME280;38483;42.620;25.394;2023-12-14T08:00:26;96251.78;;;6.18;86.95
52591;BME280;38483;42.620;25.394;2023-12-14T08:02:53;96211.81;;;5.91;87.43
52591;BME280;38483;42.620;25.394;2023-12-14T08:05:20;96216.97;;;6.11;87.70
52591;BME280;38483;42.620;25.394;2023-12-14T08:07:47;96226.13;;;6.37;86.35
52591;BME280;38483;42.620;25.394;2023-12-14T08:10:15;96198.84;;;6.34;87.09
52591;BME280;38483;42.620;25.394;2023-12-14T08:12:42;96243.69;;;6.86;86.02
52591;BME280;38483;42.620;25.394;2023-12-14T08:15:09;96222.06;;;6.72;85.14
52591;BME280;38483;42.620;25.394;2023-12-14T08:17:37;96226.00;;;6.60;86.07
52591;BME280;38483;42.620;25.394;2023-12-14T08:20:04;96247.28;;;6.84;85.16
52591;BME280;38483;42.620;25.394;2023-12-14T08:22:36;96241.97;;;6.87;85.56
52591;BME280;38483;42.620;25.394;2023-12-14T08:25:04;96250.47;;;7.07;85.54
52591;BME280;38483;42.620;25.394;2023-12-14T08:27:32;96246.44;;;7.02;84.28
52591;BME280;38483;42.620;25.394;2023-12-14T08:29:59;96260.09;;;7.04;85.00
52591;BME280;38483;42.620;25.394;2023-12-14T08:32:31;96258.56;;;7.18;85.05
52591;BME280;38483;42.620;25.394;2023-12-14T08:34:58;96244.56;;;7.05;85.08
52591;BME280;38483;42.620;25.394;2023-12-14T08:37:26;96243.13;;;7.18;85.47
52591;BME280;38483;42.620;25.394;2023-12-14T08:39:53;96245.91;;;7.14;84.63
52591;BME280;38483;42.620;25.394;2023-12-14T08:42:23;96251.88;;;7.14;85.08
52591;BME280;38483;42.620;25.394;2023-12-14T08:44:50;96269.06;;;7.32;85.24
52591;BME280;38483;42.620;25.394;2023-12-14T08:47:17;96278.34;;;7.36;84.42
52591;BME280;38483;42.620;25.394;2023-12-14T08:49:45;96267.19;;;7.36;83.99
52591;BME280;38483;42.620;25.394;2023-12-14T08:52:12;96278.25;;;7.19;85.45
52591;BME280;38483;42.620;25.394;2023-12-14T08:54:42;96200.88;;;6.85;84.67
52591;BME280;38483;42.620;25.394;2023-12-14T08:57:12;96251.06;;;7.32;85.12
52591;BME280;38483;42.620;25.394;2023-12-14T08:59:39;96241.88;;;7.27;85.18
52591;BME280;38483;42.620;25.394;2023-12-14T09:02:10;96278.88;;;7.24;84.98
52591;BME280;38483;42.620;25.394;2023-12-14T09:04:37;96279.25;;;7.35;85.76
52591;BME280;38483;42.620;25.394;2023-12-14T09:07:06;96266.44;;;7.34;85.62
52591;BME280;38483;42.620;25.394;2023-12-14T09:09:34;96206.38;;;7.15;85.40
52591;BME280;38483;42.620;25.394;2023-12-14T09:12:01;96238.19;;;7.14;86.50
52591;BME280;38483;42.620;25.394;2023-12-14T09:14:29;96218.13;;;7.20;86.43
52591;BME280;38483;42.620;25.394;2023-12-14T09:16:57;96252.84;;;7.49;85.74
52591;BME280;38483;42.620;25.394;2023-12-14T09:19:25;96240.59;;;7.73;85.90
52591;BME280;38483;42.620;25.394;2023-12-14T09:21:52;96249.34;;;7.69;86.18
52591;BME280;38483;42.620;25.394;2023-12-14T09:24:19;96236.25;;;7.73;85.72
52591;BME280;38483;42.620;25.394;2023-12-14T09:26:47;96234.59;;;7.89;86.27
52591;BME280;38483;42.620;25.394;2023-12-14T09:29:14;96227.34;;;7.97;85.46
52591;BME280;38483;42.620;25.394;2023-12-14T09:31:43;96214.16;;;8.20;84.60
52591;BME280;38483;42.620;25.394;2023-12-14T09:34:12;96218.63;;;8.17;84.73
52591;BME280;38483;42.620;25.394;2023-12-14T09:36:39;96218.22;;;8.26;84.32
52591;BME280;38483;42.620;25.394;2023-12-14T09:39:08;96209.63;;;8.26;83.47
52591;BME280;38483;42.620;25.394;2023-12-14T09:41:38;96165.00;;;8.06;83.73
52591;BME280;38483;42.620;25.394;2023-12-14T09:44:06;96206.22;;;8.25;83.63
52591;BME280;38483;42.620;25.394;2023-12-14T09:46:39;96206.66;;;8.50;83.77
52591;BME280;38483;42.620;25.394;2023-12-14T09:49:12;96214.81;;;8.75;82.63
52591;BME280;38483;42.620;25.394;2023-12-14T09:51:41;96164.41;;;8.36;82.52
52591;BME280;38483;42.620;25.394;2023-12-14T09:54:08;96210.13;;;8.49;83.85
52591;BME280;38483;42.620;25.394;2023-12-14T09:56:35;96171.84;;;8.42;83.44
52591;BME280;38483;42.620;25.394;2023-12-14T09:59:02;96218.81;;;8.81;83.57
52591;BME280;38483;42.620;25.394;2023-12-14T10:01:32;96194.16;;;8.75;83.17
52591;BME280;38483;42.620;25.394;2023-12-14T10:04:08;96211.53;;;9.05;83.20
52591;BME280;38483;42.620;25.394;2023-12-14T10:06:39;96199.88;;;9.13;83.03
52591;BME280;38483;42.620;25.394;2023-12-14T10:09:07;96210.72;;;9.20;82.92
52591;BME280;38483;42.620;25.394;2023-12-14T10:11:41;96199.28;;;9.08;83.02
52591;BME280;38483;42.620;25.394;2023-12-14T10:14:22;96186.06;;;9.14;82.79
52591;BME280;38483;42.620;25.394;2023-12-14T10:16:52;96191.03;;;9.17;83.36
52591;BME280;38483;42.620;25.394;2023-12-14T10:19:29;96164.72;;;9.26;82.45
52591;BME280;38483;42.620;25.394;2023-12-14T10:21:58;96166.41;;;9.27;82.82
52591;BME280;38483;42.620;25.394;2023-12-14T10:24:29;96183.63;;;9.42;82.68
52591;BME280;38483;42.620;25.394;2023-12-14T10:27:05;96173.00;;;9.62;82.61
52591;BME280;38483;42.620;25.394;2023-12-14T10:29:34;96152.53;;;9.44;82.48
52591;BME280;38483;42.620;25.394;2023-12-14T10:32:03;96168.47;;;9.52;82.25
52591;BME280;38483;42.620;25.394;2023-12-14T10:34:37;96139.34;;;9.48;82.34
52591;BME280;38483;42.620;25.394;2023-12-14T10:37:05;96151.66;;;9.74;81.36
52591;BME280;38483;42.620;25.394;2023-12-14T10:39:34;96155.81;;;10.07;80.64
52591;BME280;38483;42.620;25.394;2023-12-14T10:42:03;96141.91;;;9.94;80.14
52591;BME280;38483;42.620;25.394;2023-12-14T10:44:45;96157.28;;;10.26;80.39
52591;BME280;38483;42.620;25.394;2023-12-14T10:47:34;96159.72;;;10.57;78.92
52591;BME280;38483;42.620;25.394;2023-12-14T10:50:02;96122.47;;;10.60;78.00
52591;BME280;38483;42.620;25.394;2023-12-14T10:52:31;96139.00;;;10.57;78.00
52591;BME280;38483;42.620;25.394;2023-12-14T10:55:06;96163.34;;;10.69;78.07
52591;BME280;38483;42.620;25.394;2023-12-14T10:57:34;96143.91;;;10.76;77.65
52591;BME280;38483;42.620;25.394;2023-12-14T11:00:03;96152.41;;;10.78;77.47
52591;BME280;38483;42.620;25.394;2023-12-14T11:02:39;96146.78;;;10.72;77.74
52591;BME280;38483;42.620;25.394;2023-12-14T11:05:06;96142.41;;;10.86;77.31
52591;BME280;38483;42.620;25.394;2023-12-14T11:07:50;96158.53;;;10.91;76.91
52591;BME280;38483;42.620;25.394;2023-12-14T11:10:29;96149.44;;;10.84;77.15
52591;BME280;38483;42.620;25.394;2023-12-14T11:15:47;96146.22;;;10.81;77.43
52591;BME280;38483;42.620;25.394;2023-12-14T11:23:14;96147.41;;;10.89;77.21
52591;BME280;38483;42.620;25.394;2023-12-14T11:25:41;96160.84;;;10.96;77.20
52591;BME280;38483;42.620;25.394;2023-12-14T11:28:13;96140.94;;;10.82;76.94
52591;BME280;38483;42.620;25.394;2023-12-14T11:30:43;96131.16;;;10.87;77.34
52591;BME280;38483;42.620;25.394;2023-12-14T11:33:22;96132.53;;;10.79;77.73
52591;BME280;38483;42.620;25.394;2023-12-14T11:35:53;96140.88;;;10.84;77.43
52591;BME280;38483;42.620;25.394;2023-12-14T11:38:21;96129.84;;;10.80;77.83
52591;BME280;38483;42.620;25.394;2023-12-14T11:40:50;96128.00;;;10.82;77.81
52591;BME280;38483;42.620;25.394;2023-12-14T11:43:18;96129.66;;;10.83;77.87
52591;BME280;38483;42.620;25.394;2023-12-14T11:45:48;96128.66;;;10.86;77.18
52591;BME280;38483;42.620;25.394;2023-12-14T11:48:17;96129.00;;;10.94;78.01
52591;BME280;38483;42.620;25.394;2023-12-14T11:50:45;96094.34;;;10.68;77.52
52591;BME280;38483;42.620;25.394;2023-12-14T11:53:12;96124.09;;;10.89;78.49
52591;BME280;38483;42.620;25.394;2023-12-14T11:55:42;96112.06;;;10.88;77.95
52591;BME280;38483;42.620;25.394;2023-12-14T11:58:12;96103.94;;;10.80;77.64
52591;BME280;38483;42.620;25.394;2023-12-14T12:00:43;96115.97;;;10.95;77.47
52591;BME280;38483;42.620;25.394;2023-12-14T12:03:14;96122.25;;;10.91;78.01
52591;BME280;38483;42.620;25.394;2023-12-14T12:05:47;96122.25;;;10.91;77.51
52591;BME280;38483;42.620;25.394;2023-12-14T12:08:17;96104.41;;;10.87;77.38
52591;BME280;38483;42.620;25.394;2023-12-14T12:10:46;96123.63;;;10.97;77.28
52591;BME280;38483;42.620;25.394;2023-12-14T12:13:19;96115.78;;;10.84;77.86
52591;BME280;38483;42.620;25.394;2023-12-14T12:15:47;96119.47;;;10.94;77.29
52591;BME280;38483;42.620;25.394;2023-12-14T12:18:17;96085.91;;;10.79;77.60
52591;BME280;38483;42.620;25.394;2023-12-14T12:20:46;95998.78;;;10.23;77.51
52591;BME280;38483;42.620;25.394;2023-12-14T12:23:14;96096.00;;;10.83;77.51
52591;BME280;38483;42.620;25.394;2023-12-14T12:25:41;96129.00;;;11.08;77.19
52591;BME280;38483;42.620;25.394;2023-12-14T12:28:08;96128.88;;;11.09;76.97
52591;BME280;38483;42.620;25.394;2023-12-14T12:30:35;96142.78;;;11.08;77.19
52591;BME280;38483;42.620;25.394;2023-12-14T12:33:07;96137.25;;;11.00;77.34
52591;BME280;38483;42.620;25.394;2023-12-14T12:35:34;96145.44;;;11.07;77.26
52591;BME280;38483;42.620;25.394;2023-12-14T12:38:01;96128.16;;;11.07;77.83
52591;BME280;38483;42.620;25.394;2023-12-14T12:40:29;96147.66;;;11.13;77.75
52591;BME280;38483;42.620;25.394;2023-12-14T12:42:58;96136.00;;;11.20;76.95
52591;BME280;38483;42.620;25.394;2023-12-14T12:45:25;96136.47;;;11.12;77.26
52591;BME280;38483;42.620;25.394;2023-12-14T12:47:56;96125.91;;;11.15;76.56
52591;BME280;38483;42.620;25.394;2023-12-14T12:50:23;96137.66;;;11.21;77.03
52591;BME280;38483;42.620;25.394;2023-12-14T12:52:51;96133.28;;;11.21;77.03
52591;BME280;38483;42.620;25.394;2023-12-14T12:55:18;96128.22;;;11.20;76.98
52591;BME280;38483;42.620;25.394;2023-12-14T12:57:46;96130.41;;;11.26;77.08
52591;BME280;38483;42.620;25.394;2023-12-14T13:00:14;96114.97;;;11.24;76.61
52591;BME280;38483;42.620;25.394;2023-12-14T13:02:44;96126.47;;;11.20;77.82
52591;BME280;38483;42.620;25.394;2023-12-14T13:05:34;96132.16;;;11.25;77.20
52591;BME280;38483;42.620;25.394;2023-12-14T13:08:55;96153.56;;;11.29;77.00
52591;BME280;38483;42.620;25.394;2023-12-14T13:11:49;96137.50;;;11.10;77.85
52591;BME280;38483;42.620;25.394;2023-12-14T13:14:17;96129.34;;;11.16;78.65